createdAt,value
2023-02-16T00:00:44.618Z,0.76
2023-02-16T00:03:21.203Z,0.75
2023-02-16T00:05:49.248Z,0.72
2023-02-16T00:08:16.165Z,0.68
2023-02-16T00:11:03.726Z,0.59
2023-02-16T00:13:53.126Z,0.55
2023-02-16T00:16:22.313Z,0.55
2023-02-16T00:18:49.702Z,0.49
2023-02-16T00:21:18.885Z,0.47
2023-02-16T00:23:46.149Z,0.47
2023-02-16T00:26:19.481Z,0.42
2023-02-16T00:28:50.502Z,0.41
2023-02-16T00:31:24.156Z,0.34
2023-02-16T00:33:51.271Z,0.39
2023-02-16T00:36:21.205Z,0.35
2023-02-16T00:38:48.133Z,0.37
2023-02-16T00:41:39.315Z,0.37
2023-02-16T00:44:46.106Z,0.33
2023-02-16T00:47:15.971Z,0.37
2023-02-16T00:49:43.006Z,0.32
2023-02-16T00:52:30.750Z,0.21
2023-02-16T00:54:58.876Z,0.16
2023-02-16T00:57:27.010Z,0.28
2023-02-16T01:00:01.842Z,0.24
2023-02-16T01:02:29.528Z,0.19
2023-02-16T01:04:56.479Z,0.20
2023-02-16T01:07:42.881Z,0.19
2023-02-16T01:10:29.553Z,0.13
2023-02-16T01:12:56.505Z,0.08
2023-02-16T01:15:26.175Z,0.08
2023-02-16T01:17:53.056Z,0.12
2023-02-16T01:20:25.201Z,0.07
2023-02-16T01:22:52.398Z,0.08
2023-02-16T01:25:19.356Z,0.01
2023-02-16T01:27:46.691Z,0.00
2023-02-16T01:30:17.798Z,0.01
2023-02-16T01:32:51.502Z,0.05
2023-02-16T01:35:20.959Z,0.02
2023-02-16T01:37:48.642Z,-0.06
2023-02-16T01:40:26.833Z,-0.10
2023-02-16T01:43:03.116Z,-0.12
2023-02-16T01:45:35.913Z,-0.13
2023-02-16T01:48:06.094Z,-0.17
2023-02-16T01:51:03.093Z,-0.16
2023-02-16T01:53:45.430Z,-0.25
2023-02-16T01:56:37.468Z,-0.28
2023-02-16T01:59:16.405Z,-0.32
2023-02-16T02:01:58.452Z,-0.37
2023-02-16T02:04:53.193Z,-0.38
2023-02-16T02:07:29.209Z,-0.37
2023-02-16T02:10:07.332Z,-0.27
2023-02-16T02:12:52.486Z,-0.33
2023-02-16T02:15:23.623Z,-0.41
2023-02-16T02:17:50.766Z,-0.30
2023-02-16T02:21:07.855Z,-0.24
2023-02-16T02:23:56.269Z,-0.21
2023-02-16T02:26:46.756Z,-0.24
2023-02-16T02:29:36.764Z,-0.22
2023-02-16T02:32:41.537Z,-0.27
2023-02-16T02:35:44.147Z,-0.31
2023-02-16T02:38:40.584Z,-0.38
2023-02-16T02:41:57.735Z,-0.45
2023-02-16T02:44:29.123Z,-0.51
2023-02-16T02:46:56.394Z,-0.56
2023-02-16T02:49:23.448Z,-0.58
2023-02-16T02:51:51.431Z,-0.59
2023-02-16T02:54:44.787Z,-0.57
2023-02-16T02:57:46.938Z,-0.63
2023-02-16T03:00:44.489Z,-0.73
2023-02-16T03:03:21.881Z,-0.67
2023-02-16T03:05:53.205Z,-0.72
2023-02-16T03:08:24.266Z,-0.74
2023-02-16T03:11:23.357Z,-0.73
2023-02-16T03:13:57.187Z,-0.73
2023-02-16T03:16:31.329Z,-0.74
2023-02-16T03:19:17.816Z,-0.69
2023-02-16T03:22:04.046Z,-0.71
2023-02-16T03:24:51.748Z,-0.73
2023-02-16T03:27:42.878Z,-0.73
2023-02-16T03:30:11.892Z,-0.70
2023-02-16T03:32:39.964Z,-0.70
2023-02-16T03:35:08.760Z,-0.69
2023-02-16T03:37:35.851Z,-0.72
2023-02-16T03:40:21.327Z,-0.75
2023-02-16T03:42:50.122Z,-0.75
2023-02-16T03:45:17.905Z,-0.85
2023-02-16T03:47:44.800Z,-0.99
2023-02-16T03:50:11.964Z,-0.95
2023-02-16T03:52:38.881Z,-0.96
2023-02-16T03:55:06.023Z,-1.05
2023-02-16T03:57:33.001Z,-1.04
2023-02-16T04:00:00.136Z,-1.02
2023-02-16T04:02:30.531Z,-1.11
2023-02-16T04:04:57.293Z,-1.11
2023-02-16T04:07:24.546Z,-1.16
2023-02-16T04:09:51.473Z,-1.21
2023-02-16T04:12:36.591Z,-1.25
2023-02-16T04:15:12.253Z,-1.23
2023-02-16T04:17:39.588Z,-1.25
2023-02-16T04:20:08.370Z,-1.23
2023-02-16T04:22:35.305Z,-1.17
2023-02-16T04:25:02.361Z,-1.13
2023-02-16T04:27:29.257Z,-1.21
2023-02-16T04:29:56.290Z,-1.20
2023-02-16T04:32:23.356Z,-1.22
2023-02-16T04:34:50.275Z,-1.24
2023-02-16T04:37:17.480Z,-1.19
2023-02-16T04:39:44.448Z,-1.23
2023-02-16T04:42:11.343Z,-1.16
2023-02-16T04:44:38.241Z,-1.20
2023-02-16T04:47:05.274Z,-1.21
2023-02-16T04:49:32.104Z,-1.23
2023-02-16T04:51:59.027Z,-1.29
2023-02-16T04:54:25.880Z,-1.23
2023-02-16T04:56:52.865Z,-1.08
2023-02-16T04:59:19.806Z,-1.04
2023-02-16T05:01:46.886Z,-1.10
2023-02-16T05:04:13.812Z,-1.14
2023-02-16T05:06:40.979Z,-1.20
2023-02-16T05:09:08.057Z,-1.19
2023-02-16T05:11:53.982Z,-1.19
2023-02-16T05:14:41.996Z,-1.28
2023-02-16T05:17:23.592Z,-1.29
2023-02-16T05:19:52.631Z,-1.34
2023-02-16T05:22:20.754Z,-1.39
2023-02-16T05:24:48.222Z,-1.41
2023-02-16T05:27:18.888Z,-1.38
2023-02-16T05:29:45.856Z,-1.35
2023-02-16T05:32:12.826Z,-1.43
2023-02-16T05:34:40.047Z,-1.41
2023-02-16T05:37:06.952Z,-1.44
2023-02-16T05:39:33.902Z,-1.45
2023-02-16T05:42:00.802Z,-1.44
2023-02-16T05:44:27.802Z,-1.51
2023-02-16T05:46:54.842Z,-1.48
2023-02-16T05:49:21.920Z,-1.45
2023-02-16T05:51:48.914Z,-1.36
2023-02-16T05:54:19.225Z,-1.35
2023-02-16T05:56:46.845Z,-1.41
2023-02-16T05:59:14.961Z,-1.42
2023-02-16T06:01:50.602Z,-1.41
2023-02-16T06:04:18.960Z,-1.36
2023-02-16T06:06:45.906Z,-1.31
2023-02-16T06:09:12.923Z,-1.28
2023-02-16T06:11:40.162Z,-1.24
2023-02-16T06:14:18.967Z,-1.26
2023-02-16T06:16:47.914Z,-1.22
2023-02-16T06:19:17.039Z,-1.23
2023-02-16T06:21:44.395Z,-1.17
2023-02-16T06:24:13.465Z,-1.12
2023-02-16T06:26:40.737Z,-1.16
2023-02-16T06:29:08.286Z,-1.04
2023-02-16T06:31:36.641Z,-1.03
2023-02-16T06:34:04.914Z,-1.00
2023-02-16T06:36:32.119Z,-0.94
2023-02-16T06:38:59.042Z,-0.87
2023-02-16T06:41:32.128Z,-0.83
2023-02-16T06:44:04.736Z,-0.90
2023-02-16T06:46:31.975Z,-0.85
2023-02-16T06:48:59.286Z,-0.79
2023-02-16T06:51:26.673Z,-0.69
2023-02-16T06:53:53.890Z,-0.57
2023-02-16T06:56:20.924Z,-0.43
2023-02-16T06:58:48.115Z,-0.39
2023-02-16T07:01:15.196Z,-0.37
2023-02-16T07:03:42.215Z,-0.30
2023-02-16T07:06:09.230Z,-0.18
2023-02-16T07:08:36.199Z,-0.07
2023-02-16T07:11:03.772Z,0.07
2023-02-16T07:13:31.211Z,-0.04
2023-02-16T07:15:58.178Z,0.07
2023-02-16T07:18:25.028Z,0.26
2023-02-16T07:20:51.930Z,0.40
2023-02-16T07:23:18.751Z,0.42
2023-02-16T07:25:45.788Z,0.53
2023-02-16T07:28:12.863Z,0.79
2023-02-16T07:30:40.527Z,0.80
2023-02-16T07:33:07.598Z,0.93
2023-02-16T07:35:35.674Z,0.85
2023-02-16T07:38:03.986Z,0.97
2023-02-16T07:40:32.167Z,0.94
2023-02-16T07:43:08.565Z,1.07
2023-02-16T07:45:36.233Z,0.99
2023-02-16T07:48:03.241Z,0.85
2023-02-16T07:50:30.253Z,1.01
2023-02-16T07:52:57.090Z,1.38
2023-02-16T07:55:24.050Z,1.46
2023-02-16T07:57:54.884Z,1.71
2023-02-16T08:00:22.536Z,1.52
2023-02-16T08:02:49.909Z,1.68
2023-02-16T08:05:17.327Z,1.63
2023-02-16T08:07:46.724Z,1.91
2023-02-16T08:10:14.005Z,1.97
2023-02-16T08:12:40.824Z,2.22
2023-02-16T08:15:08.584Z,2.32
2023-02-16T08:17:35.815Z,2.25
2023-02-16T08:20:05.074Z,2.44
2023-02-16T08:22:32.959Z,2.71
2023-02-16T08:25:00.039Z,2.71
2023-02-16T08:27:27.108Z,2.85
2023-02-16T08:29:54.441Z,3.06
2023-02-16T08:32:21.418Z,3.05
2023-02-16T08:34:48.349Z,3.11
2023-02-16T08:37:15.227Z,3.22
2023-02-16T08:39:42.353Z,3.18
2023-02-16T08:42:11.786Z,2.86
2023-02-16T08:44:39.892Z,2.98
2023-02-16T08:47:06.996Z,3.27
2023-02-16T08:49:34.018Z,3.30
2023-02-16T08:52:01.730Z,3.46
2023-02-16T08:54:31.897Z,3.37
2023-02-16T08:57:00.140Z,3.19
2023-02-16T08:59:28.888Z,3.23
2023-02-16T09:01:58.254Z,3.38
2023-02-16T09:04:28.144Z,3.67
2023-02-16T09:06:56.405Z,3.64
2023-02-16T09:09:23.228Z,3.88
2023-02-16T09:11:50.577Z,4.14
2023-02-16T09:14:21.699Z,4.10
2023-02-16T09:16:49.170Z,3.96
2023-02-16T09:19:19.202Z,4.26
2023-02-16T09:21:47.509Z,4.21
2023-02-16T09:24:16.209Z,4.36
2023-02-16T09:26:44.859Z,4.10
2023-02-16T09:29:13.233Z,4.26
2023-02-16T09:31:40.339Z,4.50
2023-02-16T09:34:18.812Z,4.39
2023-02-16T09:36:47.434Z,4.60
2023-02-16T09:39:16.485Z,4.75
2023-02-16T09:42:04.305Z,5.13
2023-02-16T09:45:05.419Z,5.16
2023-02-16T09:47:35.176Z,5.26
2023-02-16T09:50:50.439Z,5.31
2023-02-16T09:53:29.441Z,5.17
2023-02-16T09:56:22.247Z,5.31
2023-02-16T09:59:04.723Z,5.30
2023-02-16T10:01:36.377Z,5.33
2023-02-16T10:04:09.132Z,5.60
2023-02-16T10:07:06.354Z,5.57
2023-02-16T10:09:34.415Z,5.63
2023-02-16T10:12:10.212Z,5.73
2023-02-16T10:14:45.866Z,5.89
2023-02-16T10:17:31.681Z,6.23
2023-02-16T10:20:13.339Z,6.43
2023-02-16T10:22:52.783Z,6.44
2023-02-16T10:25:41.864Z,6.57
2023-02-16T10:28:22.822Z,6.57
2023-02-16T10:31:15.179Z,6.44
2023-02-16T10:33:43.796Z,6.40
2023-02-16T10:36:32.507Z,6.73
2023-02-16T10:39:08.501Z,6.74
2023-02-16T10:41:43.015Z,6.79
2023-02-16T10:44:23.314Z,6.86
2023-02-16T10:47:04.220Z,6.57
2023-02-16T10:49:32.875Z,6.68
2023-02-16T10:52:02.807Z,6.91
2023-02-16T10:54:32.597Z,7.00
2023-02-16T10:57:01.510Z,6.85
2023-02-16T10:59:45.483Z,7.16
2023-02-16T11:02:47.418Z,7.34
2023-02-16T11:05:26.642Z,7.54
2023-02-16T11:07:57.119Z,7.58
2023-02-16T11:10:37.972Z,7.85
2023-02-16T11:13:05.649Z,8.01
2023-02-16T11:15:33.579Z,8.15
2023-02-16T11:18:05.379Z,8.28
2023-02-16T11:20:47.694Z,8.48
2023-02-16T11:23:17.585Z,8.35
2023-02-16T11:26:05.803Z,7.93
2023-02-16T11:28:46.671Z,8.32
2023-02-16T11:31:33.608Z,8.54
2023-02-16T11:34:12.319Z,8.43
2023-02-16T11:36:44.736Z,8.65
2023-02-16T11:39:14.500Z,8.84
2023-02-16T11:42:04.186Z,9.09
2023-02-16T11:44:38.267Z,9.22
2023-02-16T11:47:23.264Z,9.32
2023-02-16T11:50:07.176Z,9.15
2023-02-16T11:52:34.199Z,9.35
2023-02-16T11:55:02.213Z,9.44
2023-02-16T11:57:35.985Z,9.72
2023-02-16T12:00:17.134Z,9.31
2023-02-16T12:03:08.293Z,9.64
2023-02-16T12:05:53.227Z,9.70
2023-02-16T12:08:45.010Z,9.74
2023-02-16T12:11:42.505Z,9.54
2023-02-16T12:14:40.881Z,9.79
2023-02-16T12:17:45.299Z,9.92
2023-02-16T12:20:27.273Z,9.83
2023-02-16T12:23:17.459Z,10.15
2023-02-16T12:26:04.709Z,10.15
2023-02-16T12:29:03.046Z,10.36
2023-02-16T12:31:53.129Z,10.33
2023-02-16T12:34:43.172Z,10.38
2023-02-16T12:37:25.221Z,10.46
2023-02-16T12:40:03.517Z,10.66
2023-02-16T12:42:51.259Z,10.89
2023-02-16T12:45:22.776Z,10.57
2023-02-16T12:48:30.741Z,10.71
2023-02-16T12:51:02.637Z,10.77
2023-02-16T12:53:49.260Z,10.85
2023-02-16T12:56:30.207Z,10.81
2023-02-16T12:59:26.496Z,10.96
2023-02-16T13:01:56.559Z,11.01
2023-02-16T13:04:47.184Z,11.09
2023-02-16T13:07:22.796Z,11.13
2023-02-16T13:10:11.549Z,11.14
2023-02-16T13:12:54.148Z,11.18
2023-02-16T13:15:32.708Z,11.40
2023-02-16T13:18:05.495Z,11.57
2023-02-16T13:20:33.388Z,11.83
2023-02-16T13:23:18.172Z,12.08
2023-02-16T13:26:01.217Z,12.22
2023-02-16T13:28:43.179Z,12.29
2023-02-16T13:31:24.345Z,12.23
2023-02-16T13:34:04.194Z,12.61
2023-02-16T13:36:34.167Z,12.49
2023-02-16T13:39:19.117Z,12.51
2023-02-16T13:42:20.485Z,12.68
2023-02-16T13:45:00.604Z,12.66
2023-02-16T13:47:34.722Z,12.62
2023-02-16T13:50:07.228Z,12.49
2023-02-16T13:52:39.426Z,12.49
2023-02-16T13:55:21.812Z,12.57
2023-02-16T13:57:52.682Z,12.74
2023-02-16T14:00:36.771Z,12.87
2023-02-16T14:03:07.723Z,12.99
2023-02-16T14:05:41.864Z,12.83
2023-02-16T14:08:11.066Z,12.92
2023-02-16T14:10:56.214Z,12.92
2023-02-16T14:13:31.781Z,12.88
2023-02-16T14:16:18.596Z,12.89
2023-02-16T14:19:03.752Z,12.81
2023-02-16T14:21:38.904Z,12.84
2023-02-16T14:24:11.770Z,12.88
2023-02-16T14:27:01.369Z,12.92
2023-02-16T14:29:56.903Z,12.93
2023-02-16T14:32:32.328Z,13.02
2023-02-16T14:35:08.366Z,12.86
2023-02-16T14:37:55.520Z,12.88
2023-02-16T14:40:34.770Z,12.75
2023-02-16T14:43:15.353Z,12.70
2023-02-16T14:46:13.372Z,12.66
2023-02-16T14:49:17.180Z,12.62
2023-02-16T14:51:51.529Z,12.60
2023-02-16T14:54:31.973Z,12.70
2023-02-16T14:57:07.252Z,12.72
2023-02-16T14:59:49.459Z,12.68
2023-02-16T15:02:48.259Z,12.68
2023-02-16T15:05:25.050Z,12.65
2023-02-16T15:08:02.583Z,12.56
2023-02-16T15:10:32.410Z,12.51
2023-02-16T15:12:59.711Z,12.48
2023-02-16T15:15:44.604Z,12.51
2023-02-16T15:18:34.005Z,12.59
2023-02-16T15:21:00.933Z,12.41
2023-02-16T15:23:34.866Z,12.33
2023-02-16T15:26:08.479Z,12.21
2023-02-16T15:28:38.470Z,12.07
2023-02-16T15:31:08.247Z,11.96
2023-02-16T15:33:41.831Z,11.88
2023-02-16T15:36:14.496Z,11.81
2023-02-16T15:38:52.357Z,11.69
2023-02-16T15:41:31.662Z,11.59
2023-02-16T15:44:00.122Z,11.56
2023-02-16T15:46:36.280Z,11.61
2023-02-16T15:49:27.275Z,11.57
2023-02-16T15:51:56.974Z,11.48
2023-02-16T15:54:30.864Z,11.39
2023-02-16T15:57:07.624Z,11.29
2023-02-16T15:59:49.045Z,11.23
2023-02-16T16:02:38.027Z,11.18
2023-02-16T16:05:07.556Z,11.14
2023-02-16T16:07:36.340Z,11.03
2023-02-16T16:10:13.777Z,10.93
2023-02-16T16:12:40.848Z,10.81
2023-02-16T16:15:15.897Z,10.65
2023-02-16T16:17:42.910Z,10.56
2023-02-16T16:20:28.076Z,10.42
2023-02-16T16:23:21.476Z,10.22
2023-02-16T16:25:48.842Z,10.06
2023-02-16T16:28:27.864Z,9.99
2023-02-16T16:31:11.961Z,9.93
2023-02-16T16:34:08.815Z,9.86
2023-02-16T16:36:38.606Z,9.77
2023-02-16T16:39:17.566Z,9.64
2023-02-16T16:42:07.126Z,9.74
2023-02-16T16:44:34.182Z,9.68
2023-02-16T16:47:19.439Z,9.58
2023-02-16T16:50:14.629Z,9.42
2023-02-16T16:52:47.754Z,9.32
2023-02-16T16:55:23.573Z,9.21
2023-02-16T16:58:01.009Z,9.12
2023-02-16T17:00:34.633Z,8.96
2023-02-16T17:03:04.129Z,8.98
2023-02-16T17:05:31.108Z,9.05
2023-02-16T17:07:58.132Z,9.01
2023-02-16T17:10:25.350Z,9.00
2023-02-16T17:12:56.180Z,9.05
2023-02-16T17:15:31.610Z,8.99
2023-02-16T17:17:59.206Z,8.94
2023-02-16T17:20:26.635Z,8.89
2023-02-16T17:22:53.679Z,8.80
2023-02-16T17:25:20.811Z,8.69
2023-02-16T17:27:47.801Z,8.73
2023-02-16T17:30:15.608Z,8.82
2023-02-16T17:32:42.555Z,8.73
2023-02-16T17:35:09.509Z,8.67
2023-02-16T17:37:36.470Z,8.59
2023-02-16T17:40:04.790Z,8.36
2023-02-16T17:42:31.867Z,8.18
2023-02-16T17:44:58.762Z,8.08
2023-02-16T17:47:25.801Z,8.00
2023-02-16T17:49:52.766Z,7.86
2023-02-16T17:52:19.939Z,7.78
2023-02-16T17:54:46.973Z,7.72
2023-02-16T17:57:14.039Z,7.77
2023-02-16T17:59:42.337Z,7.84
2023-02-16T18:02:11.409Z,7.85
2023-02-16T18:04:41.366Z,7.84
2023-02-16T18:07:13.435Z,7.81
2023-02-16T18:09:40.921Z,7.59
2023-02-16T18:12:08.447Z,7.45
2023-02-16T18:14:36.329Z,7.41
2023-02-16T18:17:05.005Z,7.34
2023-02-16T18:19:32.184Z,7.25
2023-02-16T18:22:00.951Z,7.17
2023-02-16T18:24:27.975Z,7.10
2023-02-16T18:26:55.594Z,6.93
2023-02-16T18:29:22.597Z,6.91
2023-02-16T18:31:49.801Z,6.87
2023-02-16T18:34:16.878Z,6.80
2023-02-16T18:36:43.904Z,6.75
2023-02-16T18:39:11.094Z,6.71
2023-02-16T18:41:38.108Z,6.73
2023-02-16T18:44:05.631Z,6.72
2023-02-16T18:46:32.796Z,6.67
2023-02-16T18:48:59.825Z,6.76
2023-02-16T18:51:29.513Z,6.66
2023-02-16T18:53:57.954Z,6.60
2023-02-16T18:56:25.140Z,6.52
2023-02-16T18:58:52.013Z,6.45
2023-02-16T19:01:31.177Z,6.44
2023-02-16T19:03:59.293Z,6.44
2023-02-16T19:06:26.445Z,6.43
2023-02-16T19:08:53.378Z,6.37
2023-02-16T19:11:21.154Z,6.35
2023-02-16T19:13:48.541Z,6.33
2023-02-16T19:16:17.081Z,6.32
2023-02-16T19:18:44.058Z,6.37
2023-02-16T19:21:13.530Z,6.34
2023-02-16T19:23:40.554Z,6.26
2023-02-16T19:26:13.199Z,6.16
2023-02-16T19:28:40.418Z,6.01
2023-02-16T19:31:15.229Z,6.03
2023-02-16T19:33:42.138Z,6.05
2023-02-16T19:36:10.825Z,5.96
2023-02-16T19:38:37.845Z,5.99
2023-02-16T19:41:28.925Z,5.89
2023-02-16T19:43:56.213Z,5.95
2023-02-16T19:46:23.854Z,6.02
2023-02-16T19:48:50.981Z,5.98
2023-02-16T19:51:18.461Z,5.79
2023-02-16T19:53:45.366Z,5.71
2023-02-16T19:56:15.863Z,5.57
2023-02-16T19:58:42.869Z,5.69
2023-02-16T20:01:24.918Z,5.73
2023-02-16T20:03:53.197Z,5.79
2023-02-16T20:06:26.287Z,5.78
2023-02-16T20:08:58.059Z,5.74
2023-02-16T20:11:27.053Z,5.70
2023-02-16T20:13:54.400Z,5.58
2023-02-16T20:16:21.977Z,5.50
2023-02-16T20:18:49.775Z,5.42
2023-02-16T20:21:22.235Z,5.39
2023-02-16T20:23:52.035Z,5.35
2023-02-16T20:26:23.206Z,5.30
2023-02-16T20:28:50.886Z,5.30
2023-02-16T20:31:43.605Z,5.23
2023-02-16T20:34:10.895Z,5.14
2023-02-16T20:36:38.051Z,5.37
2023-02-16T20:39:07.506Z,5.34
2023-02-16T20:41:34.530Z,5.45
2023-02-16T20:44:03.014Z,5.38
2023-02-16T20:46:30.032Z,5.24
2023-02-16T20:48:57.296Z,5.17
2023-02-16T20:51:24.808Z,5.15
2023-02-16T20:53:51.963Z,5.19
2023-02-16T20:56:24.311Z,5.08
2023-02-16T20:58:53.351Z,4.92
2023-02-16T21:01:22.294Z,4.76
2023-02-16T21:03:50.043Z,4.75
2023-02-16T21:06:17.592Z,4.74
2023-02-16T21:08:44.936Z,4.70
2023-02-16T21:11:12.252Z,4.70
2023-02-16T21:13:40.368Z,4.68
2023-02-16T21:16:08.634Z,4.80
2023-02-16T21:18:38.764Z,4.76
2023-02-16T21:21:08.063Z,4.66
2023-02-16T21:23:35.641Z,4.66
2023-02-16T21:26:05.218Z,4.53
2023-02-16T21:28:32.401Z,4.50
2023-02-16T21:31:09.885Z,4.50
2023-02-16T21:33:37.489Z,4.57
2023-02-16T21:36:15.738Z,4.61
2023-02-16T21:38:44.010Z,4.76
2023-02-16T21:41:26.905Z,4.88
2023-02-16T21:44:01.376Z,4.96
2023-02-16T21:46:31.043Z,4.88
2023-02-16T21:48:58.722Z,4.85
2023-02-16T21:51:31.377Z,5.02
2023-02-16T21:53:59.165Z,5.22
2023-02-16T21:56:35.649Z,5.34
2023-02-16T21:59:03.672Z,5.36
2023-02-16T22:01:33.384Z,5.33
2023-02-16T22:04:01.710Z,5.36
2023-02-16T22:06:34.841Z,5.40
2023-02-16T22:09:06.168Z,5.53
2023-02-16T22:11:33.261Z,5.70
2023-02-16T22:14:01.275Z,5.75
2023-02-16T22:16:30.396Z,5.73
2023-02-16T22:19:04.076Z,5.65
2023-02-16T22:21:31.893Z,5.47
2023-02-16T22:24:00.816Z,5.47
2023-02-16T22:26:33.110Z,5.53
2023-02-16T22:29:02.362Z,5.48
2023-02-16T22:31:29.503Z,5.41
2023-02-16T22:33:58.490Z,5.58
2023-02-16T22:36:26.247Z,5.67
2023-02-16T22:38:54.086Z,5.51
2023-02-16T22:41:21.927Z,5.49
2023-02-16T22:43:53.043Z,5.27
2023-02-16T22:46:19.962Z,4.95
2023-02-16T22:48:46.902Z,4.77
2023-02-16T22:51:16.331Z,4.74
2023-02-16T22:53:43.764Z,4.71
2023-02-16T22:56:13.886Z,4.76
2023-02-16T22:58:40.673Z,4.66
2023-02-16T23:01:13.259Z,4.63
2023-02-16T23:03:40.577Z,4.65
2023-02-16T23:06:34.968Z,4.60
2023-02-16T23:09:14.022Z,4.43
2023-02-16T23:11:40.961Z,4.35
2023-02-16T23:14:16.365Z,4.33
2023-02-16T23:16:48.696Z,4.43
2023-02-16T23:19:19.080Z,4.29
2023-02-16T23:21:46.869Z,4.20
2023-02-16T23:24:17.193Z,4.34
2023-02-16T23:26:44.127Z,4.45
2023-02-16T23:29:11.793Z,4.51
2023-02-16T23:31:41.394Z,4.58
2023-02-16T23:34:09.136Z,4.65
2023-02-16T23:36:37.884Z,4.81
2023-02-16T23:39:10.598Z,5.12
2023-02-16T23:41:38.359Z,5.45
2023-02-16T23:44:06.015Z,5.77
2023-02-16T23:46:33.377Z,6.13
2023-02-16T23:49:00.170Z,6.18
2023-02-16T23:51:27.611Z,6.23
2023-02-16T23:53:54.891Z,6.32
2023-02-16T23:56:24.947Z,6.12
2023-02-16T23:58:52.729Z,5.78
